ELLX/LUX METAR and TAF weather

Enter ICAO airport designator
Station Type Date Time Source
ELLX METAR 2018/07/16 23:50 UTC NOAA

ELLX 162350Z AUTO 05005KT 9999 NCD 21/10 Q1014 NOSIG


Station Type Date Time Source
ELLX Decoded METAR 2018/07/16 23:50 UTC NOAA

Luxembourg / Luxembourg, Luxembourg (ELLX) 49-37N 006-13E 379M
Jul 16, 2018 - 07:50 PM EDT / 2018.07.16 2350 UTC
Wind: from the NE (050 degrees) at 6 MPH (5 KT):0
Visibility: greater than 7 mile(s):0
Temperature: 69 F (21 C)
Dew Point: 50 F (10 C)
Relative Humidity: 49%
Pressure (altimeter): 29.94 in. Hg (1014 hPa)
ob: ELLX 162350Z AUTO 05005KT 9999 NCD 21/10 Q1014 NOSIG
cycle: 0

Station Type Date Time Source
ELLX TAF 2018/07/16 18:27 UTC NOAA

TAF ELLX 161700Z 1618/1724 02007KT CAVOK
BECMG 1709/1712 28010G20KT
TEMPO 1709/1718 SCT070TCU


Example: see airport list